Time;durP1;ratioP1;P1;durP2;ratioP2;P2;SDS_P1;SDS_P2;PMS_P1;PMS_P2;Temp;Humidity;BMP_temperature;BMP_pressure;BME280_temperature;BME280_humidity;BME280_pressure;Samples;Min_cycle;Max_cycle;Signal;HPM_P1;HPM_P2
2022/01/25 00:28:51;;;;;;;80.63;40.83;;;;;;;;;;5134887;27;20042;-70
2022/01/25 00:31:17;;;;;;;83.95;41.38;;;;;;;;;;5135133;27;20078;-72
2022/01/25 00:33:45;;;;;;;81.72;42.83;;;;;;;;;;5134077;27;20039;-71
2022/01/25 00:36:12;;;;;;;82.18;41.20;;;;;;;;;;5134222;27;20055;-70
2022/01/25 00:38:39;;;;;;;81.82;43.17;;;;;;;;;;5140231;27;20043;-71
2022/01/25 00:41:05;;;;;;;80.07;41.70;;;;;;;;;;5133541;27;20108;-71
2022/01/25 00:43:31;;;;;;;81.47;41.17;;;;;;;;;;5098996;27;20130;-71
2022/01/25 00:46:01;;;;;;;86.68;43.67;;;;;;;;;;5134475;27;20043;-71
2022/01/25 00:56:23;;;;;;;80.28;41.00;;;;;;;;;;5134602;27;20119;-71
2022/01/25 00:58:50;;;;;;;80.80;42.30;;;;;;;;;;5115498;27;20047;-71
2022/01/25 01:01:16;;;;;;;84.72;42.28;;;;;;;;;;5134285;27;20091;-71
2022/01/25 01:03:42;;;;;;;79.95;41.58;;;;;;;;;;5133414;27;20043;-70
2022/01/25 01:06:09;;;;;;;80.68;42.20;;;;;;;;;;5134358;27;20102;-71
2022/01/25 01:08:35;;;;;;;83.78;42.63;;;;;;;;;;5133612;27;20039;-71
2022/01/25 01:11:05;;;;;;;81.97;41.05;;;;;;;;;;5117174;27;20038;-70
2022/01/25 01:48:40;;;;;;;87.75;41.30;;;;;;;;;;5133289;27;20035;-70
2022/01/25 01:51:15;;;;;;;78.05;41.22;;;;;;;;;;5133315;27;20042;-71
2022/01/25 01:53:41;;;;;;;78.85;41.58;;;;;;;;;;5132609;27;20115;-71
2022/01/25 01:56:07;;;;;;;84.22;40.95;;;;;;;;;;5133145;27;20031;-71
2022/01/25 01:58:35;;;;;;;81.45;43.33;;;;;;;;;;5133466;27;20078;-72
2022/01/25 02:01:01;;;;;;;84.88;40.83;;;;;;;;;;5132163;27;20074;-71
2022/01/25 02:03:27;;;;;;;80.70;41.47;;;;;;;;;;5132329;27;20073;-71
2022/01/25 02:05:53;;;;;;;82.97;42.22;;;;;;;;;;5131454;28;20169;-71
2022/01/25 02:08:19;;;;;;;87.88;42.97;;;;;;;;;;5132928;28;20043;-71
2022/01/25 02:10:46;;;;;;;83.10;42.28;;;;;;;;;;5114047;28;20485;-70
2022/01/25 02:13:13;;;;;;;83.68;40.90;;;;;;;;;;5132606;28;20054;-70
2022/01/25 02:15:43;;;;;;;79.82;40.50;;;;;;;;;;5152287;27;20039;-71
2022/01/25 02:23:38;;;;;;;90.10;42.30;;;;;;;;;;5133333;28;20074;-71
2022/01/25 02:26:05;;;;;;;83.85;42.17;;;;;;;;;;5132297;27;20134;-71
2022/01/25 02:28:32;;;;;;;84.13;41.75;;;;;;;;;;5114545;28;20113;-70
2022/01/25 02:30:59;;;;;;;82.18;42.08;;;;;;;;;;5132377;28;20031;-71
2022/01/25 02:33:25;;;;;;;;;;;;;;;;;;5114031;28;20078;-71
2022/01/25 02:35:51;;;;;;;80.38;41.15;;;;;;;;;;5133184;27;19951;-71
2022/01/25 02:38:21;;;;;;;82.75;43.08;;;;;;;;;;5132902;28;20477;-71
2022/01/25 02:40:47;;;;;;;81.93;41.28;;;;;;;;;;5113700;28;20038;-71
2022/01/25 02:43:16;;;;;;;81.47;40.92;;;;;;;;;;5134942;27;20531;-71
2022/01/25 02:45:46;;;;;;;81.75;44.13;;;;;;;;;;5102234;27;20072;-71
2022/01/25 02:48:30;;;;;;;79.82;42.58;;;;;;;;;;5136196;27;20233;-71
2022/01/25 02:50:58;;;;;;;78.25;42.65;;;;;;;;;;5135001;27;20067;-70
2022/01/25 02:53:24;;;;;;;81.60;42.58;;;;;;;;;;5118495;27;20050;-71
2022/01/25 02:55:51;;;;;;;79.70;42.05;;;;;;;;;;5136733;27;20077;-70
2022/01/25 02:58:17;;;;;;;89.88;43.47;;;;;;;;;;5136378;27;20039;-70
2022/01/25 03:00:43;;;;;;;83.28;42.95;;;;;;;;;;5117440;27;20055;-70
2022/01/25 03:03:09;;;;;;;87.00;44.72;;;;;;;;;;5135521;27;20046;-71
2022/01/25 03:05:35;;;;;;;81.60;40.60;;;;;;;;;;5136939;27;20043;-70
2022/01/25 03:08:01;;;;;;;85.53;42.53;;;;;;;;;;5135380;27;20498;-71
2022/01/25 03:10:34;;;;;;;84.72;45.50;;;;;;;;;;5136540;27;20039;-71
2022/01/25 03:13:00;;;;;;;84.53;43.13;;;;;;;;;;5134548;27;20068;-71
2022/01/25 03:15:42;;;;;;;82.85;42.33;;;;;;;;;;5135156;27;20118;-71
2022/01/25 03:18:22;;;;;;;81.35;42.03;;;;;;;;;;5135006;27;20953;-71
2022/01/25 03:20:52;;;;;;;92.80;45.35;;;;;;;;;;5119755;27;20462;-71
2022/01/25 03:23:20;;;;;;;83.72;43.78;;;;;;;;;;5136180;27;20047;-71
2022/01/25 03:25:47;;;;;;;83.30;42.78;;;;;;;;;;5135291;27;20104;-71
2022/01/25 03:28:14;;;;;;;91.18;42.42;;;;;;;;;;5136724;27;20046;-72
2022/01/25 03:30:40;;;;;;;;;;;;;;;;;;5136087;27;20473;-71
2022/01/25 03:33:06;;;;;;;83.65;42.22;;;;;;;;;;5136734;27;19916;-72
2022/01/25 03:35:32;;;;;;;83.57;41.67;;;;;;;;;;5135884;27;20518;-70
2022/01/25 03:37:58;;;;;;;83.50;42.60;;;;;;;;;;5122298;27;20039;-70
2022/01/25 03:40:24;;;;;;;87.03;45.35;;;;;;;;;;5135925;27;20079;-70
2022/01/25 03:42:50;;;;;;;87.25;45.50;;;;;;;;;;5135505;27;20479;-71
2022/01/25 03:45:20;;;;;;;84.45;46.10;;;;;;;;;;5135923;27;20095;-70
2022/01/25 03:48:00;;;;;;;87.30;44.78;;;;;;;;;;5134849;27;20077;-70
2022/01/25 03:50:27;;;;;;;86.05;44.38;;;;;;;;;;5135670;27;20039;-71
2022/01/25 03:52:53;;;;;;;89.57;46.15;;;;;;;;;;5134744;27;20050;-70
2022/01/25 03:55:19;;;;;;;89.50;44.45;;;;;;;;;;5135646;27;20054;-70
2022/01/25 03:57:45;;;;;;;88.22;44.67;;;;;;;;;;5134955;27;20088;-72
2022/01/25 04:00:12;;;;;;;87.13;45.40;;;;;;;;;;5133851;27;20142;-69
2022/01/25 04:02:47;;;;;;;80.07;42.13;;;;;;;;;;5135312;27;20490;-71
2022/01/25 04:05:20;;;;;;;81.38;44.28;;;;;;;;;;5134719;27;20043;-70
2022/01/25 04:07:50;;;;;;;86.85;45.15;;;;;;;;;;5135486;27;20479;-70
2022/01/25 04:10:19;;;;;;;81.93;43.55;;;;;;;;;;5151266;27;20070;-70
2022/01/25 04:12:48;;;;;;;85.50;43.10;;;;;;;;;;5142232;27;20038;-71
2022/01/25 04:15:14;;;;;;;91.07;46.20;;;;;;;;;;5134062;27;20042;-71
2022/01/25 04:17:44;;;;;;;83.72;43.65;;;;;;;;;;5135036;27;20047;-70
2022/01/25 04:20:19;;;;;;;85.20;42.83;;;;;;;;;;5133329;27;20039;-71
2022/01/25 04:25:30;;;;;;;87.70;44.58;;;;;;;;;;5114413;28;20136;-70
2022/01/25 04:27:56;;;;;;;92.22;44.53;;;;;;;;;;5114117;28;20047;-70
2022/01/25 04:30:22;;;;;;;88.15;42.65;;;;;;;;;;5111395;27;20058;-70
2022/01/25 04:32:55;;;;;;;87.10;43.80;;;;;;;;;;5134739;27;20046;-70
2022/01/25 04:51:45;;;;;;;87.95;43.17;;;;;;;;;;5141778;27;20053;-71
2022/01/25 04:56:53;;;;;;;85.35;43.45;;;;;;;;;;5134467;27;20093;-71
2022/01/25 04:59:28;;;;;;;88.15;42.53;;;;;;;;;;5133098;27;20054;-71
2022/01/25 05:02:01;;;;;;;88.68;43.97;;;;;;;;;;5134427;27;20390;-71
2022/01/25 05:04:32;;;;;;;87.65;42.58;;;;;;;;;;5134376;27;20092;-70
2022/01/25 05:07:08;;;;;;;89.85;43.38;;;;;;;;;;5134421;27;20046;-70
2022/01/25 05:09:35;;;;;;;87.63;43.80;;;;;;;;;;5133730;27;20047;-70
2022/01/25 05:12:04;;;;;;;86.40;43.63;;;;;;;;;;5133489;27;20471;-71
2022/01/25 05:14:34;;;;;;;84.38;42.28;;;;;;;;;;5099324;27;20180;-70
2022/01/25 05:17:03;;;;;;;88.53;43.30;;;;;;;;;;5135024;27;20039;-70
2022/01/25 05:22:28;;;;;;;87.13;43.88;;;;;;;;;;5092984;27;20110;-70
2022/01/25 05:24:54;;;;;;;91.05;44.75;;;;;;;;;;5133666;27;20114;-70
2022/01/25 05:27:22;;;;;;;88.25;44.95;;;;;;;;;;5134847;27;20046;-71
2022/01/25 05:29:49;;;;;;;87.88;43.63;;;;;;;;;;5142307;27;20470;-70
2022/01/25 05:32:15;;;;;;;84.45;43.00;;;;;;;;;;5133799;27;20431;-70
2022/01/25 05:34:41;;;;;;;90.20;41.90;;;;;;;;;;5133656;27;20039;-69
2022/01/25 05:37:08;;;;;;;87.25;42.80;;;;;;;;;;5132345;27;20073;-70
2022/01/25 05:39:37;;;;;;;88.25;43.55;;;;;;;;;;5135170;27;20043;-70
2022/01/25 05:45:39;;;;;;;85.60;42.53;;;;;;;;;;5134225;27;20042;-70
2022/01/25 05:47:30;;;;;;;97.57;46.38;;;;;;;;;;5098430;28;20135;-70
2022/01/25 05:49:57;;;;;;;93.25;44.55;;;;;;;;;;5132477;27;20046;-70
2022/01/25 05:52:23;;;;;;;92.30;43.17;;;;;;;;;;5132818;27;20043;-70
2022/01/25 05:54:49;;;;;;;89.25;43.40;;;;;;;;;;5133399;27;20099;-70
2022/01/25 05:57:15;;;;;;;92.22;42.47;;;;;;;;;;5147482;27;20038;-70
2022/01/25 05:59:42;;;;;;;95.50;43.55;;;;;;;;;;5139016;27;20395;-70
2022/01/25 06:02:08;;;;;;;88.45;42.78;;;;;;;;;;5131529;27;20050;-70
2022/01/25 06:04:34;;;;;;;83.65;42.25;;;;;;;;;;5133392;27;20082;-70
2022/01/25 06:07:00;;;;;;;90.85;42.95;;;;;;;;;;5115614;28;20043;-69
2022/01/25 06:09:26;;;;;;;86.22;42.88;;;;;;;;;;5132216;28;20047;-70
2022/01/25 06:11:53;;;;;;;88.53;42.88;;;;;;;;;;5133022;28;20043;-69
2022/01/25 06:14:19;;;;;;;92.22;44.45;;;;;;;;;;5131626;28;20628;-70
2022/01/25 06:16:45;;;;;;;;;;;;;;;;;;5133392;27;20513;-70
2022/01/25 06:19:12;;;;;;;91.30;44.88;;;;;;;;;;5136393;27;19915;-70
2022/01/25 06:21:38;;;;;;;88.65;43.50;;;;;;;;;;5136179;27;20067;-70
2022/01/25 06:24:04;;;;;;;95.00;46.75;;;;;;;;;;5135410;27;20039;-70
2022/01/25 06:26:30;;;;;;;83.75;43.30;;;;;;;;;;5139642;27;20035;-69
2022/01/25 06:28:56;;;;;;;93.20;44.55;;;;;;;;;;5135816;27;20467;-70
2022/01/25 06:31:22;;;;;;;91.22;45.65;;;;;;;;;;5136115;27;20060;-69
2022/01/25 06:33:48;;;;;;;95.15;46.55;;;;;;;;;;5135917;27;20177;-70
2022/01/25 06:36:15;;;;;;;97.90;45.65;;;;;;;;;;5136215;27;20110;-70
2022/01/25 06:38:41;;;;;;;91.93;46.42;;;;;;;;;;5134346;27;20039;-70
2022/01/25 06:41:10;;;;;;;93.13;43.65;;;;;;;;;;5136672;27;20043;-70
2022/01/25 06:43:36;;;;;;;90.15;45.08;;;;;;;;;;5135959;27;20069;-70
2022/01/25 06:46:03;;;;;;;93.95;45.22;;;;;;;;;;5137091;27;20050;-70
2022/01/25 06:48:30;;;;;;;86.05;42.13;;;;;;;;;;5136286;27;20070;-70
2022/01/25 06:50:56;;;;;;;94.32;45.42;;;;;;;;;;5136458;27;20081;-69
2022/01/25 06:53:22;;;;;;;85.53;42.40;;;;;;;;;;5151735;27;20121;-70
2022/01/25 06:55:48;;;;;;;96.82;45.38;;;;;;;;;;5119994;27;20042;-70
2022/01/25 06:58:14;;;;;;;88.95;43.67;;;;;;;;;;5131049;27;20360;-70
2022/01/25 07:00:40;;;;;;;91.38;44.35;;;;;;;;;;5143215;27;20104;-71
2022/01/25 07:03:06;;;;;;;90.57;45.70;;;;;;;;;;5149103;27;20119;-70
2022/01/25 07:05:33;;;;;;;90.45;44.58;;;;;;;;;;5143298;27;20440;-70
2022/01/25 07:07:59;;;;;;;90.47;44.75;;;;;;;;;;5138330;27;20119;-70
2022/01/25 07:10:25;;;;;;;;;;;;;;;;;;5135630;27;20066;-69
2022/01/25 07:12:51;;;;;;;91.38;44.95;;;;;;;;;;5136456;27;19977;-69
2022/01/25 07:15:18;;;;;;;91.13;45.10;;;;;;;;;;5134988;27;20046;-69
2022/01/25 07:17:44;;;;;;;99.85;45.88;;;;;;;;;;5112394;27;20041;-69
2022/01/25 07:20:10;;;;;;;;;;;;;;;;;;5107595;27;20031;-69
2022/01/25 07:22:37;;;;;;;93.05;45.65;;;;;;;;;;5135124;27;19987;-69
2022/01/25 07:25:05;;;;;;;101.07;48.30;;;;;;;;;;5134730;27;20063;-69
2022/01/25 07:27:31;;;;;;;91.07;44.03;;;;;;;;;;5133057;27;20441;-69
2022/01/25 07:29:57;;;;;;;89.93;44.22;;;;;;;;;;5134341;27;20039;-69
2022/01/25 07:32:23;;;;;;;97.18;49.00;;;;;;;;;;5135336;27;20364;-70
2022/01/25 07:34:49;;;;;;;97.53;45.00;;;;;;;;;;5134278;27;20440;-71
2022/01/25 07:37:15;;;;;;;99.70;46.75;;;;;;;;;;5133072;27;20039;-70
2022/01/25 07:39:42;;;;;;;110.97;46.15;;;;;;;;;;5129918;27;20043;-71
2022/01/25 07:42:09;;;;;;;94.50;43.63;;;;;;;;;;5135034;27;20035;-71
2022/01/25 07:44:38;;;;;;;96.90;46.10;;;;;;;;;;5140944;27;20122;-70
2022/01/25 07:47:04;;;;;;;91.75;46.15;;;;;;;;;;5135182;27;20124;-70
2022/01/25 07:49:30;;;;;;;91.63;44.97;;;;;;;;;;5134829;27;20039;-70
2022/01/25 07:51:57;;;;;;;93.28;47.03;;;;;;;;;;5134642;27;20039;-70
2022/01/25 07:54:23;;;;;;;96.30;44.80;;;;;;;;;;5127798;27;20054;-70
2022/01/25 07:56:49;;;;;;;93.25;46.65;;;;;;;;;;5134115;27;20468;-70
2022/01/25 07:59:15;;;;;;;95.75;46.55;;;;;;;;;;5134920;27;20068;-70
2022/01/25 08:01:42;;;;;;;97.63;45.55;;;;;;;;;;5130617;27;20043;-70
2022/01/25 08:04:08;;;;;;;99.95;47.45;;;;;;;;;;5131703;27;20043;-70
2022/01/25 08:06:35;;;;;;;91.40;44.35;;;;;;;;;;5133376;27;20046;-70
2022/01/25 08:09:01;;;;;;;;;;;;;;;;;;5115734;27;20482;-70
2022/01/25 08:11:28;;;;;;;98.45;48.95;;;;;;;;;;5132089;27;19926;-70
2022/01/25 08:14:01;;;;;;;101.35;47.72;;;;;;;;;;5131968;27;20470;-71
2022/01/25 08:16:27;;;;;;;100.88;50.38;;;;;;;;;;5132187;27;20054;-70
2022/01/25 08:18:53;;;;;;;100.65;46.55;;;;;;;;;;5132016;27;20129;-71
2022/01/25 08:21:19;;;;;;;101.57;48.03;;;;;;;;;;5132838;27;20035;-70
2022/01/25 08:23:45;;;;;;;102.68;46.90;;;;;;;;;;5131254;27;20043;-70
2022/01/25 08:26:11;;;;;;;105.75;48.08;;;;;;;;;;5113476;27;20063;-70
2022/01/25 08:28:37;;;;;;;94.80;43.92;;;;;;;;;;5129379;27;20050;-70
2022/01/25 08:31:03;;;;;;;102.35;48.33;;;;;;;;;;5112832;27;20038;-70
2022/01/25 08:33:29;;;;;;;98.90;45.67;;;;;;;;;;5129892;27;20118;-70
2022/01/25 08:35:56;;;;;;;105.10;48.13;;;;;;;;;;5131365;27;20039;-70
2022/01/25 08:38:22;;;;;;;100.45;46.50;;;;;;;;;;5095585;27;20043;-70
2022/01/25 08:40:48;;;;;;;102.95;48.25;;;;;;;;;;5127334;27;20386;-70
2022/01/25 08:43:14;;;;;;;94.20;47.15;;;;;;;;;;5127997;27;20070;-70
2022/01/25 08:45:40;;;;;;;98.53;47.13;;;;;;;;;;5130945;27;20493;-70
2022/01/25 08:48:06;;;;;;;100.25;47.95;;;;;;;;;;5113076;27;20111;-71
2022/01/25 08:50:32;;;;;;;102.60;46.95;;;;;;;;;;5131820;27;20043;-70
2022/01/25 08:53:02;;;;;;;105.75;48.45;;;;;;;;;;5131463;27;20531;-71
2022/01/25 08:55:28;;;;;;;103.18;51.60;;;;;;;;;;5131304;27;20446;-70
2022/01/25 08:57:54;;;;;;;109.35;47.28;;;;;;;;;;5131873;27;20188;-71
2022/01/25 09:00:20;;;;;;;102.20;48.08;;;;;;;;;;5112624;27;20364;-71
2022/01/25 09:02:46;;;;;;;108.22;50.42;;;;;;;;;;5123202;27;20122;-71
2022/01/25 09:05:12;;;;;;;106.13;49.75;;;;;;;;;;5106884;27;20039;-71
2022/01/25 09:07:38;;;;;;;105.22;48.95;;;;;;;;;;5127423;27;20043;-71
2022/01/25 09:10:06;;;;;;;102.55;49.20;;;;;;;;;;5107356;27;20050;-70
2022/01/25 09:12:32;;;;;;;107.63;48.17;;;;;;;;;;5127657;27;20114;-70
2022/01/25 09:14:58;;;;;;;100.30;45.97;;;;;;;;;;5130537;27;20036;-70
2022/01/25 09:17:24;;;;;;;99.07;46.85;;;;;;;;;;5106217;27;20051;-72
2022/01/25 09:19:50;;;;;;;105.32;47.92;;;;;;;;;;5112960;27;20684;-70
2022/01/25 09:22:16;;;;;;;100.28;47.65;;;;;;;;;;5108724;27;20047;-71
2022/01/25 09:24:42;;;;;;;101.90;48.08;;;;;;;;;;5108365;27;20252;-71
2022/01/25 09:27:08;;;;;;;100.97;47.75;;;;;;;;;;5129917;27;20038;-71
2022/01/25 09:29:35;;;;;;;103.00;47.95;;;;;;;;;;5109307;27;20045;-70
2022/01/25 09:32:05;;;;;;;100.72;48.10;;;;;;;;;;5135016;27;20109;-70
2022/01/25 09:34:31;;;;;;;104.75;46.35;;;;;;;;;;5136406;27;20378;-70
2022/01/25 09:36:57;;;;;;;100.05;47.60;;;;;;;;;;5109435;27;20455;-71
2022/01/25 09:39:23;;;;;;;106.20;49.22;;;;;;;;;;5132188;27;20049;-71
2022/01/25 09:41:49;;;;;;;117.38;48.65;;;;;;;;;;5135083;27;20031;-71
2022/01/25 09:44:15;;;;;;;106.95;48.78;;;;;;;;;;5136555;27;20538;-70
2022/01/25 09:46:43;;;;;;;109.03;49.45;;;;;;;;;;5124417;27;20038;-71
2022/01/25 09:49:09;;;;;;;107.82;50.10;;;;;;;;;;5123171;27;20047;-71
2022/01/25 09:51:36;;;;;;;98.30;45.33;;;;;;;;;;5118351;27;20180;-71
2022/01/25 09:54:02;;;;;;;106.10;48.65;;;;;;;;;;5101956;28;20828;-71
2022/01/25 09:56:28;;;;;;;104.88;49.10;;;;;;;;;;5117459;27;20465;-71
2022/01/25 09:58:57;;;;;;;107.25;50.03;;;;;;;;;;5123961;27;20497;-71
2022/01/25 10:01:27;;;;;;;100.40;45.92;;;;;;;;;;5106079;28;20087;-71
2022/01/25 10:03:54;;;;;;;106.22;49.28;;;;;;;;;;5123195;27;20035;-72
2022/01/25 10:06:22;;;;;;;111.35;48.20;;;;;;;;;;5124169;28;20047;-73
2022/01/25 10:08:52;;;;;;;107.05;47.30;;;;;;;;;;5122851;28;20040;-71
2022/01/25 10:11:19;;;;;;;102.03;47.17;;;;;;;;;;5104099;28;20027;-71
2022/01/25 10:13:58;;;;;;;115.47;49.20;;;;;;;;;;5133846;27;20035;-71
2022/01/25 10:16:34;;;;;;;106.70;49.28;;;;;;;;;;5134500;27;20039;-71
2022/01/25 10:19:01;;;;;;;110.40;48.03;;;;;;;;;;5128902;27;20043;-72
2022/01/25 10:21:35;;;;;;;108.40;50.50;;;;;;;;;;5121628;28;20393;-70
2022/01/25 10:24:07;;;;;;;105.57;48.60;;;;;;;;;;5124545;27;20035;-70
2022/01/25 10:26:34;;;;;;;102.78;47.30;;;;;;;;;;5127551;28;20094;-71
2022/01/25 10:29:04;;;;;;;104.18;48.08;;;;;;;;;;5131026;27;20045;-72
2022/01/25 10:31:38;;;;;;;106.85;47.45;;;;;;;;;;5130835;28;20031;-72
2022/01/25 10:34:05;;;;;;;104.43;47.17;;;;;;;;;;5112890;28;20039;-72
2022/01/25 10:36:32;;;;;;;102.10;48.80;;;;;;;;;;5131603;28;20047;-71
2022/01/25 10:38:58;;;;;;;107.35;48.03;;;;;;;;;;5132272;27;20442;-71
2022/01/25 10:41:26;;;;;;;107.10;47.22;;;;;;;;;;5129883;27;20039;-71
2022/01/25 10:43:53;;;;;;;102.25;49.45;;;;;;;;;;5127204;28;20445;-71
2022/01/25 10:46:24;;;;;;;109.45;48.88;;;;;;;;;;5130104;27;20047;-71
2022/01/25 10:48:51;;;;;;;108.68;49.58;;;;;;;;;;5131014;27;20043;-72
2022/01/25 10:51:19;;;;;;;108.85;47.50;;;;;;;;;;5133358;27;20077;-70
2022/01/25 10:53:45;;;;;;;113.68;49.50;;;;;;;;;;5129954;27;20062;-70
2022/01/25 10:56:12;;;;;;;103.10;47.53;;;;;;;;;;5134869;27;20167;-71
2022/01/25 10:58:38;;;;;;;;;;;;;;;;;;5127492;28;20042;-71
2022/01/25 11:01:04;;;;;;;105.88;48.00;;;;;;;;;;5126837;27;19927;-70
2022/01/25 11:03:32;;;;;;;107.57;48.88;;;;;;;;;;5131299;27;20495;-71
2022/01/25 11:06:07;;;;;;;101.97;47.05;;;;;;;;;;5115784;27;20042;-70
2022/01/25 11:08:36;;;;;;;115.88;51.63;;;;;;;;;;5135030;27;20046;-71
2022/01/25 11:11:03;;;;;;;118.93;50.15;;;;;;;;;;5127358;27;20031;-71
2022/01/25 11:16:00;;;;;;;110.50;46.95;;;;;;;;;;5107989;27;20035;-71
2022/01/25 11:18:27;;;;;;;108.50;49.10;;;;;;;;;;5126726;27;20128;-71
2022/01/25 11:20:54;;;;;;;103.82;47.72;;;;;;;;;;5127751;27;20129;-72
2022/01/25 11:23:20;;;;;;;118.53;49.28;;;;;;;;;;5123553;27;20039;-71
2022/01/25 11:25:48;;;;;;;111.78;48.60;;;;;;;;;;5132460;27;20035;-71
2022/01/25 11:28:15;;;;;;;110.30;48.58;;;;;;;;;;5134165;27;20110;-71
2022/01/25 11:30:42;;;;;;;114.95;49.42;;;;;;;;;;5133900;27;20035;-70
2022/01/25 11:33:09;;;;;;;108.75;49.55;;;;;;;;;;5113799;27;20032;-70
2022/01/25 11:35:36;;;;;;;110.60;46.83;;;;;;;;;;5125761;27;20035;-70
2022/01/25 11:38:03;;;;;;;107.50;49.25;;;;;;;;;;5126359;27;20031;-70
2022/01/25 11:40:40;;;;;;;112.38;47.50;;;;;;;;;;5126390;27;20038;-70
2022/01/25 11:43:06;;;;;;;;;;;;;;;;;;5125669;27;20095;-70
2022/01/25 11:45:34;;;;;;;120.28;51.85;;;;;;;;;;5126982;27;19919;-70
2022/01/25 11:48:00;;;;;;;116.45;49.67;;;;;;;;;;5118264;27;20035;-69
2022/01/25 11:50:26;;;;;;;;;;;;;;;;;;5121648;27;20043;-70
2022/01/25 11:52:54;;;;;;;117.07;50.40;;;;;;;;;;5107253;27;20407;-70
2022/01/25 11:55:31;;;;;;;116.80;48.80;;;;;;;;;;5106778;27;20045;-70
2022/01/25 11:58:07;;;;;;;113.47;50.58;;;;;;;;;;5125515;27;20039;-70
2022/01/25 12:00:47;;;;;;;116.78;50.63;;;;;;;;;;5131102;27;20031;-69
2022/01/25 12:03:22;;;;;;;105.80;46.90;;;;;;;;;;5132636;27;20045;-70
2022/01/25 12:06:09;;;;;;;118.18;51.58;;;;;;;;;;5134723;27;20078;-71
2022/01/25 12:09:06;;;;;;;104.77;49.87;;;;;;;;;;5123844;27;20436;-71
2022/01/25 12:11:24;;;;;;;105.25;45.80;;;;;;;;;;5132020;27;20693;-70
2022/01/25 12:14:09;;;;;;;114.55;50.17;;;;;;;;;;5132635;27;20051;-70
2022/01/25 12:16:43;;;;;;;113.00;50.58;;;;;;;;;;5134360;27;20556;-71
2022/01/25 12:19:09;;;;;;;116.20;49.38;;;;;;;;;;5131245;27;20577;-70
